CheckWX is a tool to help pilots better visualize weather data.  It is not intended as a substitute for an official pre-flight weather briefing.

07:56:55 UTC

KDVT METAR
Phoenix Deer Valley Airport
Phoenix, Arizona, USA
Current

1 hour ago

KDVT 280653Z AUTO 03013KT 10SM CLR 14/03 A3022 RMK AO2 SLP222 T01390033 402280044
Observed
Feb-28 @ 06:53 UTC
Wind
  • 030° at 13 KTS
Visibility
10 SM
Flight Rules
VFR
Cloud Levels
  • Clear skies
Temperature
14°C / 57°F
Dewpoint
C / 37°F
Humidity
48%
Altimeter
30.22" Hg
Pressure
1023.42 hPa
Previous

2 hours ago

KDVT 280553Z AUTO 03007KT 10SM CLR 14/03 A3023 RMK AO2 SLP227 T01440033 10222 20139 51013
Observed
Feb-28 @ 05:53 UTC
Wind
  • 030° at 7 KTS
Visibility
10 SM
Flight Rules
VFR
Cloud Levels
  • Clear skies
Temperature
14°C / 57°F
Dewpoint
C / 37°F
Humidity
48%
Altimeter
30.23" Hg
Pressure
1023.72 hPa
Previous

3 hours ago

KDVT 280453Z AUTO 03007KT 10SM CLR 15/04 A3023 RMK AO2 SLP228 T01500039
Observed
Feb-28 @ 04:53 UTC
Wind
  • 030° at 7 KTS
Visibility
10 SM
Flight Rules
VFR
Cloud Levels
  • Clear skies
Temperature
15°C / 59°F
Dewpoint
C / 39°F
Humidity
48%
Altimeter
30.23" Hg
Pressure
1023.72 hPa